createdAt,value
2024-05-09T00:01:58.343Z,47.77
2024-05-09T00:06:49.341Z,47.72
2024-05-09T00:11:40.387Z,47.68
2024-05-09T00:16:31.124Z,47.66
2024-05-09T00:21:21.697Z,47.64
2024-05-09T00:26:12.726Z,47.63
2024-05-09T00:31:03.480Z,47.62
2024-05-09T00:35:54.640Z,47.56
2024-05-09T00:40:45.156Z,47.56
2024-05-09T00:50:33.576Z,47.62
2024-05-09T01:00:18.069Z,47.54
2024-05-09T01:09:51.724Z,47.54
2024-05-09T01:19:32.981Z,47.58
2024-05-09T01:29:15.317Z,47.56
2024-05-09T01:38:56.059Z,47.53
2024-05-09T01:48:38.154Z,47.55
2024-05-09T01:58:19.989Z,47.58
2024-05-09T02:08:01.495Z,47.58
2024-05-09T02:17:43.560Z,47.55
2024-05-09T02:27:26.186Z,47.56
2024-05-09T02:37:07.461Z,47.56
2024-05-09T02:46:49.925Z,47.59
2024-05-09T02:56:31.282Z,47.55
2024-05-09T03:01:22.272Z,47.53
2024-05-09T03:06:13.300Z,47.58
2024-05-09T03:11:04.044Z,47.59
2024-05-09T03:15:54.651Z,47.62
2024-05-09T03:20:45.715Z,47.56
2024-05-09T03:25:36.710Z,47.52
2024-05-09T03:30:30.704Z,47.52
2024-05-09T03:35:18.380Z,47.51
2024-05-09T03:40:11.902Z,47.54
2024-05-09T03:45:00.636Z,47.52
2024-05-09T03:49:51.877Z,47.45
2024-05-09T03:54:41.614Z,47.46
2024-05-09T03:59:32.536Z,47.56
2024-05-09T04:04:23.515Z,47.57
2024-05-09T04:09:14.605Z,47.58
2024-05-09T04:14:05.670Z,47.59
2024-05-09T04:18:56.668Z,47.51
2024-05-09T04:23:47.707Z,47.54
2024-05-09T04:28:38.816Z,47.51
2024-05-09T04:33:29.919Z,47.29
2024-05-09T04:38:20.577Z,46.72
2024-05-09T04:43:11.479Z,46.73
2024-05-09T04:48:02.543Z,45.9
2024-05-09T04:52:53.114Z,45.78
2024-05-09T04:57:44.438Z,46.68
2024-05-09T05:02:35.377Z,46.8
2024-05-09T05:07:26.467Z,46.05
2024-05-09T05:12:17.417Z,47.2
2024-05-09T05:17:08.389Z,46.02
2024-05-09T05:21:59.531Z,45.34
2024-05-09T05:26:52.208Z,44.86
2024-05-09T05:31:41.699Z,44.3
2024-05-09T05:36:32.494Z,44.73
2024-05-09T05:41:23.458Z,45.04
2024-05-09T05:46:14.633Z,44.91
2024-05-09T05:51:05.638Z,44.66
2024-05-09T05:55:56.411Z,43.8
2024-05-09T06:00:48.422Z,43.83
2024-05-09T06:05:38.979Z,43.61
2024-05-09T06:10:34.669Z,43.29
2024-05-09T06:15:20.871Z,44.93
2024-05-09T06:20:16.688Z,42.93
2024-05-09T06:25:02.561Z,42.68
2024-05-09T06:29:57.282Z,42.66
2024-05-09T06:34:46.892Z,42.66
2024-05-09T06:39:37.710Z,42.83
2024-05-09T06:44:28.682Z,42.68
2024-05-09T06:49:19.802Z,41.95
2024-05-09T06:54:10.695Z,42.29
2024-05-09T06:59:02.123Z,41.97
2024-05-09T07:03:53.002Z,42.32
2024-05-09T07:08:43.665Z,42.2
2024-05-09T07:13:34.904Z,42.25
2024-05-09T07:18:25.721Z,42.15
2024-05-09T07:23:16.464Z,42.19
2024-05-09T07:28:07.110Z,41.93
2024-05-09T07:32:58.304Z,42
2024-05-09T07:37:49.518Z,42.02
2024-05-09T07:42:40.088Z,41.96
2024-05-09T07:48:13.872Z,42.18
2024-05-09T07:53:08.450Z,42.67
2024-05-09T07:57:13.582Z,42.82
2024-05-09T08:02:04.602Z,42.89
2024-05-09T08:06:57.709Z,43.09
2024-05-09T08:11:47.459Z,43.36
2024-05-09T08:16:38.862Z,43.45
2024-05-09T08:21:29.734Z,43.48
2024-05-09T08:26:20.494Z,43.73
2024-05-09T08:31:14.457Z,43.75
2024-05-09T08:36:03.709Z,43.85
2024-05-09T08:40:54.579Z,44.08
2024-05-09T08:45:45.845Z,44.13
2024-05-09T08:50:38.428Z,44.25
2024-05-09T08:55:27.479Z,44.43
2024-05-09T09:00:25.531Z,44.32
2024-05-09T09:05:09.974Z,44.42
2024-05-09T09:10:00.582Z,44.46
2024-05-09T09:14:51.677Z,44.27
2024-05-09T09:19:42.747Z,44.17
2024-05-09T09:24:33.693Z,42.77
2024-05-09T09:29:24.316Z,41.3
2024-05-09T09:34:15.421Z,41.26
2024-05-09T09:39:06.322Z,41.57
2024-05-09T09:43:57.319Z,40.9
2024-05-09T09:48:48.544Z,41.9
2024-05-09T09:53:39.373Z,41.75
2024-05-09T09:58:30.459Z,41.95
2024-05-09T10:03:21.622Z,40.71
2024-05-09T10:08:12.607Z,41.05
2024-05-09T10:13:03.536Z,41.91
2024-05-09T10:17:54.741Z,41.35
2024-05-09T10:22:45.366Z,41.02
2024-05-09T10:27:36.300Z,41.54
2024-05-09T10:32:27.454Z,41.7
2024-05-09T10:37:18.372Z,41.72
2024-05-09T10:42:09.163Z,40.81
2024-05-09T10:47:00.314Z,40.37
2024-05-09T10:51:52.103Z,40.53
2024-05-09T10:56:42.284Z,40.59
2024-05-09T11:01:33.307Z,41.08
2024-05-09T11:06:24.542Z,40.91
2024-05-09T11:11:15.495Z,41.14
2024-05-09T11:16:06.802Z,40.42
2024-05-09T11:20:57.820Z,40.25
2024-05-09T11:25:48.943Z,40.95
2024-05-09T11:30:39.811Z,40.8
2024-05-09T11:35:34.372Z,39.9
2024-05-09T11:40:25.147Z,40.68
2024-05-09T11:45:14.296Z,39.68
2024-05-09T11:50:07.844Z,40.47
2024-05-09T11:54:56.405Z,41.06
2024-05-09T11:59:47.282Z,41.04
2024-05-09T12:04:39.408Z,41.09
2024-05-09T12:09:30.144Z,41.22
2024-05-09T12:14:20.810Z,41.31
2024-05-09T12:19:12.183Z,40.11
2024-05-09T12:24:02.548Z,40.29
2024-05-09T12:28:53.613Z,40.53
2024-05-09T12:33:44.546Z,39.35
2024-05-09T12:38:35.414Z,39.59
2024-05-09T12:43:26.707Z,40.19
2024-05-09T12:48:17.542Z,40.22
2024-05-09T12:53:08.292Z,40.34
2024-05-09T12:57:59.420Z,40.36
2024-05-09T13:02:50.852Z,39.71
2024-05-09T13:07:41.544Z,39.88
2024-05-09T13:12:32.823Z,39.76
2024-05-09T13:17:23.821Z,40.14
2024-05-09T13:22:14.506Z,40.45
2024-05-09T13:27:04.913Z,40.31
2024-05-09T13:31:55.705Z,40.15
2024-05-09T13:36:47.754Z,40.37
2024-05-09T13:41:38.485Z,40.26
2024-05-09T13:46:29.454Z,40.02
2024-05-09T13:51:20.310Z,39.66
2024-05-09T13:56:11.287Z,40.45
2024-05-09T14:01:01.898Z,40.42
2024-05-09T14:05:54.396Z,39.52
2024-05-09T14:10:44.942Z,40.19
2024-05-09T14:15:35.546Z,39.77
2024-05-09T14:20:29.951Z,39.72
2024-05-09T14:25:17.827Z,39.76
2024-05-09T14:30:14.699Z,39.54
2024-05-09T14:39:51.773Z,38.68
2024-05-09T14:49:33.399Z,39.6
2024-05-09T14:59:15.585Z,39.6
2024-05-09T15:08:56.837Z,39.07
2024-05-09T15:18:39.869Z,38.72
2024-05-09T15:28:21.490Z,38.73
2024-05-09T15:38:04.619Z,39.41
2024-05-09T15:47:45.826Z,39.42
2024-05-09T15:57:27.787Z,38.97
2024-05-09T16:07:09.727Z,38.56
2024-05-09T16:16:52.516Z,38.33
2024-05-09T16:26:34.271Z,38.33
2024-05-09T16:36:16.560Z,37.71
2024-05-09T16:41:07.635Z,37.74
2024-05-09T16:45:58.935Z,37.67
2024-05-09T16:54:59.418Z,37.52
2024-05-09T17:04:40.987Z,37.42
2024-05-09T17:14:22.514Z,37.39
2024-05-09T17:24:04.407Z,37.61
2024-05-09T17:33:47.061Z,37.75
2024-05-09T17:43:28.720Z,38.36
2024-05-09T17:48:19.621Z,38.49
2024-05-09T17:53:10.422Z,38.88
2024-05-09T18:02:52.544Z,39.06
2024-05-09T18:12:34.390Z,39.42
2024-05-09T18:17:25.997Z,39.55
2024-05-09T18:22:16.524Z,39.79
2024-05-09T18:27:07.696Z,39.98
2024-05-09T18:31:58.956Z,40.14
2024-05-09T18:36:51.006Z,40.39
2024-05-09T18:41:41.017Z,40.34
2024-05-09T18:46:31.869Z,40.4
2024-05-09T18:51:22.741Z,40.71
2024-05-09T18:56:13.837Z,40.95
2024-05-09T19:01:05.231Z,41.02
2024-05-09T19:05:56.063Z,41.09
2024-05-09T19:10:46.836Z,41.25
2024-05-09T19:15:37.936Z,41.38
2024-05-09T19:20:31.908Z,41.13
2024-05-09T19:25:19.873Z,41.16
2024-05-09T19:30:14.302Z,41
2024-05-09T19:35:02.170Z,41.01
2024-05-09T19:39:53.052Z,40.9
2024-05-09T19:44:43.794Z,40.77
2024-05-09T19:49:35.649Z,40.73
2024-05-09T19:54:26.265Z,40.89
2024-05-09T19:57:47.207Z,40.85
2024-05-09T20:02:37.282Z,40.96
2024-05-09T20:07:28.177Z,41.11
2024-05-09T20:17:10.398Z,41.41
2024-05-09T20:26:52.645Z,41.77
2024-05-09T20:36:36.453Z,42.05
2024-05-09T20:46:18.850Z,42.25
2024-05-09T20:56:01.058Z,42.52
2024-05-09T21:05:43.076Z,42.69
2024-05-09T21:10:34.575Z,42.73
2024-05-09T21:15:25.236Z,42.8
2024-05-09T21:20:17.624Z,42.85
2024-05-09T21:25:07.774Z,42.88
2024-05-09T21:29:58.699Z,42.95
2024-05-09T21:34:50.977Z,42.98
2024-05-09T21:39:40.603Z,43.03
2024-05-09T21:44:31.665Z,43.1
2024-05-09T21:49:22.675Z,43.11
2024-05-09T21:54:13.972Z,43.18
2024-05-09T21:59:04.680Z,43.25
2024-05-09T22:03:55.935Z,43.27
2024-05-09T22:08:46.881Z,43.29
2024-05-09T22:13:38.041Z,43.33
2024-05-09T22:18:28.876Z,43.36
2024-05-09T22:23:19.593Z,43.39
2024-05-09T22:28:10.951Z,43.39
2024-05-09T22:33:01.954Z,43.43
2024-05-09T22:37:52.805Z,43.51
2024-05-09T22:42:44.092Z,43.58
2024-05-09T22:47:35.090Z,43.55
2024-05-09T22:52:26.150Z,43.59
2024-05-09T22:57:16.878Z,43.61
2024-05-09T23:02:07.968Z,43.61
2024-05-09T23:07:00.077Z,43.58
2024-05-09T23:11:50.970Z,43.59
2024-05-09T23:16:41.461Z,43.6
2024-05-09T23:21:32.672Z,43.59
2024-05-09T23:26:23.456Z,43.58
2024-05-09T23:31:14.557Z,43.6
2024-05-09T23:36:06.330Z,43.65
2024-05-09T23:40:56.697Z,43.65
2024-05-09T23:45:48.106Z,43.67
2024-05-09T23:50:39.852Z,43.72
2024-05-09T23:55:29.818Z,43.7
